sensor_id;sensor_type;location;lat;lon;timestamp;temperature;humidity
51021;DHT22;38907;45.562;8.856;2023-04-25T00:03:41;15.10;99.90
51021;DHT22;38907;45.562;8.856;2023-04-25T00:08:45;15.30;99.90
51021;DHT22;38907;45.562;8.856;2023-04-25T00:13:47;15.30;99.90
51021;DHT22;38907;45.562;8.856;2023-04-25T00:18:50;15.20;99.90
51021;DHT22;38907;45.562;8.856;2023-04-25T00:23:55;15.20;99.90
51021;DHT22;38907;45.562;8.856;2023-04-25T00:28:58;15.20;99.90
51021;DHT22;38907;45.562;8.856;2023-04-25T00:34:00;15.20;99.90
51021;DHT22;38907;45.562;8.856;2023-04-25T00:39:03;15.00;99.90
51021;DHT22;38907;45.562;8.856;2023-04-25T00:44:05;14.70;99.90
51021;DHT22;38907;45.562;8.856;2023-04-25T00:49:09;14.70;99.90
51021;DHT22;38907;45.562;8.856;2023-04-25T00:54:17;14.80;99.90
51021;DHT22;38907;45.562;8.856;2023-04-25T00:59:19;14.90;99.90
51021;DHT22;38907;45.562;8.856;2023-04-25T01:04:22;14.90;99.90
51021;DHT22;38907;45.562;8.856;2023-04-25T01:09:25;14.60;99.90
51021;DHT22;38907;45.562;8.856;2023-04-25T01:14:27;14.70;99.90
51021;DHT22;38907;45.562;8.856;2023-04-25T01:19:30;14.80;99.90
51021;DHT22;38907;45.562;8.856;2023-04-25T01:24:34;14.80;99.90
51021;DHT22;38907;45.562;8.856;2023-04-25T01:29:36;14.70;99.90
51021;DHT22;38907;45.562;8.856;2023-04-25T01:34:38;14.70;99.90
51021;DHT22;38907;45.562;8.856;2023-04-25T01:39:42;14.90;99.90
51021;DHT22;38907;45.562;8.856;2023-04-25T01:44:44;14.80;99.90
51021;DHT22;38907;45.562;8.856;2023-04-25T01:49:46;14.70;99.90
51021;DHT22;38907;45.562;8.856;2023-04-25T01:54:49;14.60;99.90
51021;DHT22;38907;45.562;8.856;2023-04-25T01:59:53;14.30;99.90
51021;DHT22;38907;45.562;8.856;2023-04-25T02:04:59;14.10;99.90
51021;DHT22;38907;45.562;8.856;2023-04-25T02:10:03;14.00;99.90
51021;DHT22;38907;45.562;8.856;2023-04-25T02:15:06;13.90;99.90
51021;DHT22;38907;45.562;8.856;2023-04-25T02:20:09;13.80;99.90
51021;DHT22;38907;45.562;8.856;2023-04-25T02:25:13;13.70;99.90
51021;DHT22;38907;45.562;8.856;2023-04-25T02:30:16;13.80;99.90
51021;DHT22;38907;45.562;8.856;2023-04-25T02:35:18;13.70;99.90
51021;DHT22;38907;45.562;8.856;2023-04-25T02:40:21;13.60;99.90
51021;DHT22;38907;45.562;8.856;2023-04-25T02:45:23;13.50;99.90
51021;DHT22;38907;45.562;8.856;2023-04-25T02:50:25;13.50;99.90
51021;DHT22;38907;45.562;8.856;2023-04-25T02:55:29;13.40;99.90
51021;DHT22;38907;45.562;8.856;2023-04-25T03:00:31;13.30;99.90
51021;DHT22;38907;45.562;8.856;2023-04-25T03:05:32;13.40;99.90
51021;DHT22;38907;45.562;8.856;2023-04-25T03:10:36;13.50;99.90
51021;DHT22;38907;45.562;8.856;2023-04-25T03:15:38;13.40;99.90
51021;DHT22;38907;45.562;8.856;2023-04-25T03:20:40;13.20;99.90
51021;DHT22;38907;45.562;8.856;2023-04-25T03:25:44;13.40;99.90
51021;DHT22;38907;45.562;8.856;2023-04-25T03:30:46;13.30;99.90
51021;DHT22;38907;45.562;8.856;2023-04-25T03:35:48;13.30;99.90
51021;DHT22;38907;45.562;8.856;2023-04-25T03:40:51;13.20;99.90
51021;DHT22;38907;45.562;8.856;2023-04-25T03:45:53;13.20;99.90
51021;DHT22;38907;45.562;8.856;2023-04-25T03:50:55;13.20;99.90
51021;DHT22;38907;45.562;8.856;2023-04-25T03:55:58;13.00;99.90
51021;DHT22;38907;45.562;8.856;2023-04-25T04:01:00;12.60;99.90
51021;DHT22;38907;45.562;8.856;2023-04-25T04:06:03;12.50;99.90
51021;DHT22;38907;45.562;8.856;2023-04-25T04:11:07;12.60;99.90
51021;DHT22;38907;45.562;8.856;2023-04-25T04:16:09;12.80;99.90
51021;DHT22;38907;45.562;8.856;2023-04-25T04:21:11;12.80;99.90
51021;DHT22;38907;45.562;8.856;2023-04-25T04:26:15;12.90;99.90
51021;DHT22;38907;45.562;8.856;2023-04-25T04:31:16;13.10;99.90
51021;DHT22;38907;45.562;8.856;2023-04-25T04:36:20;13.10;99.90
51021;DHT22;38907;45.562;8.856;2023-04-25T04:41:23;13.10;99.90
51021;DHT22;38907;45.562;8.856;2023-04-25T04:46:25;13.20;99.90
51021;DHT22;38907;45.562;8.856;2023-04-25T04:51:28;13.20;99.90
51021;DHT22;38907;45.562;8.856;2023-04-25T04:56:32;12.50;99.90
51021;DHT22;38907;45.562;8.856;2023-04-25T05:01:34;12.40;99.90
51021;DHT22;38907;45.562;8.856;2023-04-25T05:06:36;12.20;99.90
51021;DHT22;38907;45.562;8.856;2023-04-25T05:11:39;12.20;99.90
51021;DHT22;38907;45.562;8.856;2023-04-25T05:16:42;11.90;99.90
51021;DHT22;38907;45.562;8.856;2023-04-25T05:21:44;11.90;99.90
51021;DHT22;38907;45.562;8.856;2023-04-25T05:26:47;12.20;99.90
51021;DHT22;38907;45.562;8.856;2023-04-25T05:31:49;12.50;99.90
51021;DHT22;38907;45.562;8.856;2023-04-25T05:36:51;12.80;99.90
51021;DHT22;38907;45.562;8.856;2023-04-25T05:41:54;13.10;99.90
51021;DHT22;38907;45.562;8.856;2023-04-25T05:46:56;13.10;99.90
51021;DHT22;38907;45.562;8.856;2023-04-25T05:51:58;13.30;99.90
51021;DHT22;38907;45.562;8.856;2023-04-25T05:57:01;13.50;99.90
51021;DHT22;38907;45.562;8.856;2023-04-25T06:02:03;13.70;99.90
51021;DHT22;38907;45.562;8.856;2023-04-25T06:07:05;13.80;99.90
51021;DHT22;38907;45.562;8.856;2023-04-25T06:12:08;14.10;99.90
51021;DHT22;38907;45.562;8.856;2023-04-25T06:17:10;14.30;99.90
51021;DHT22;38907;45.562;8.856;2023-04-25T06:22:12;14.40;99.90
51021;DHT22;38907;45.562;8.856;2023-04-25T06:27:15;14.70;99.90
51021;DHT22;38907;45.562;8.856;2023-04-25T06:32:17;14.80;99.90
51021;DHT22;38907;45.562;8.856;2023-04-25T06:37:19;14.80;99.90
51021;DHT22;38907;45.562;8.856;2023-04-25T06:42:22;15.00;99.90
51021;DHT22;38907;45.562;8.856;2023-04-25T06:47:24;15.00;99.90
51021;DHT22;38907;45.562;8.856;2023-04-25T06:52:26;15.10;99.90
51021;DHT22;38907;45.562;8.856;2023-04-25T06:57:29;15.30;99.90
51021;DHT22;38907;45.562;8.856;2023-04-25T07:02:31;15.40;99.90
51021;DHT22;38907;45.562;8.856;2023-04-25T07:07:33;15.50;99.90
51021;DHT22;38907;45.562;8.856;2023-04-25T07:12:36;15.40;99.90
51021;DHT22;38907;45.562;8.856;2023-04-25T07:17:37;15.70;99.90
51021;DHT22;38907;45.562;8.856;2023-04-25T07:22:39;15.60;99.90
51021;DHT22;38907;45.562;8.856;2023-04-25T07:27:43;15.70;99.90
51021;DHT22;38907;45.562;8.856;2023-04-25T07:32:44;15.80;99.90
51021;DHT22;38907;45.562;8.856;2023-04-25T07:37:46;15.80;99.90
51021;DHT22;38907;45.562;8.856;2023-04-25T07:42:50;15.80;99.90
51021;DHT22;38907;45.562;8.856;2023-04-25T07:47:51;16.00;99.90
51021;DHT22;38907;45.562;8.856;2023-04-25T07:52:53;15.80;99.90
51021;DHT22;38907;45.562;8.856;2023-04-25T07:57:57;15.80;99.90
51021;DHT22;38907;45.562;8.856;2023-04-25T08:02:59;16.10;99.90
51021;DHT22;38907;45.562;8.856;2023-04-25T08:08:00;16.40;99.90
51021;DHT22;38907;45.562;8.856;2023-04-25T08:13:04;16.50;99.90
51021;DHT22;38907;45.562;8.856;2023-04-25T08:18:06;16.70;99.90
51021;DHT22;38907;45.562;8.856;2023-04-25T08:23:08;16.50;99.90
51021;DHT22;38907;45.562;8.856;2023-04-25T08:28:13;16.60;99.90
51021;DHT22;38907;45.562;8.856;2023-04-25T08:33:15;16.70;99.90
51021;DHT22;38907;45.562;8.856;2023-04-25T08:38:18;16.90;99.90
51021;DHT22;38907;45.562;8.856;2023-04-25T08:43:23;16.80;99.90
51021;DHT22;38907;45.562;8.856;2023-04-25T08:48:27;16.90;99.90
51021;DHT22;38907;45.562;8.856;2023-04-25T08:53:31;17.00;99.90
51021;DHT22;38907;45.562;8.856;2023-04-25T08:58:36;16.70;99.90
51021;DHT22;38907;45.562;8.856;2023-04-25T09:03:38;16.70;99.90
51021;DHT22;38907;45.562;8.856;2023-04-25T09:08:41;17.10;99.90
51021;DHT22;38907;45.562;8.856;2023-04-25T09:13:45;17.20;99.90
51021;DHT22;38907;45.562;8.856;2023-04-25T09:18:47;16.90;99.90
51021;DHT22;38907;45.562;8.856;2023-04-25T09:23:50;16.70;99.90
51021;DHT22;38907;45.562;8.856;2023-04-25T09:29:05;17.00;99.90
51021;DHT22;38907;45.562;8.856;2023-04-25T09:34:07;17.00;99.90
51021;DHT22;38907;45.562;8.856;2023-04-25T09:39:12;17.30;99.90
51021;DHT22;38907;45.562;8.856;2023-04-25T09:44:23;17.10;99.90
51021;DHT22;38907;45.562;8.856;2023-04-25T09:49:26;16.80;99.90
51021;DHT22;38907;45.562;8.856;2023-04-25T09:54:28;17.10;99.90
51021;DHT22;38907;45.562;8.856;2023-04-25T09:59:33;17.20;99.90
51021;DHT22;38907;45.562;8.856;2023-04-25T10:04:37;17.60;99.90
51021;DHT22;38907;45.562;8.856;2023-04-25T10:09:40;17.40;99.90
51021;DHT22;38907;45.562;8.856;2023-04-25T10:14:44;17.50;99.90
51021;DHT22;38907;45.562;8.856;2023-04-25T10:19:47;17.80;99.90
51021;DHT22;38907;45.562;8.856;2023-04-25T10:24:50;17.90;99.90
51021;DHT22;38907;45.562;8.856;2023-04-25T10:30:01;17.90;99.90
51021;DHT22;38907;45.562;8.856;2023-04-25T10:35:12;18.10;99.90
51021;DHT22;38907;45.562;8.856;2023-04-25T10:40:21;18.10;99.90
51021;DHT22;38907;45.562;8.856;2023-04-25T10:45:25;18.20;99.90
51021;DHT22;38907;45.562;8.856;2023-04-25T10:50:37;18.10;99.90
51021;DHT22;38907;45.562;8.856;2023-04-25T10:55:49;18.00;99.90
51021;DHT22;38907;45.562;8.856;2023-04-25T11:00:55;18.20;99.90
51021;DHT22;38907;45.562;8.856;2023-04-25T11:05:57;18.30;99.90
51021;DHT22;38907;45.562;8.856;2023-04-25T11:11:01;18.30;99.90
51021;DHT22;38907;45.562;8.856;2023-04-25T11:16:07;18.30;99.90
51021;DHT22;38907;45.562;8.856;2023-04-25T11:21:09;18.10;99.90
51021;DHT22;38907;45.562;8.856;2023-04-25T11:26:11;18.30;99.90
51021;DHT22;38907;45.562;8.856;2023-04-25T11:31:14;18.50;99.90
51021;DHT22;38907;45.562;8.856;2023-04-25T11:36:16;18.60;99.90
51021;DHT22;38907;45.562;8.856;2023-04-25T11:41:18;18.50;99.90
51021;DHT22;38907;45.562;8.856;2023-04-25T11:46:23;18.80;99.90
51021;DHT22;38907;45.562;8.856;2023-04-25T11:51:26;19.00;99.90
51021;DHT22;38907;45.562;8.856;2023-04-25T11:56:28;19.10;99.90
51021;DHT22;38907;45.562;8.856;2023-04-25T12:01:34;19.10;99.90
51021;DHT22;38907;45.562;8.856;2023-04-25T12:06:37;19.30;99.90
51021;DHT22;38907;45.562;8.856;2023-04-25T12:11:41;19.20;99.90
51021;DHT22;38907;45.562;8.856;2023-04-25T12:16:46;19.30;99.90
51021;DHT22;38907;45.562;8.856;2023-04-25T12:21:49;19.30;98.00
51021;DHT22;38907;45.562;8.856;2023-04-25T12:26:53;19.50;98.50
51021;DHT22;38907;45.562;8.856;2023-04-25T12:31:57;19.50;99.20
51021;DHT22;38907;45.562;8.856;2023-04-25T12:36:59;19.80;99.40
51021;DHT22;38907;45.562;8.856;2023-04-25T12:42:01;20.00;98.20
51021;DHT22;38907;45.562;8.856;2023-04-25T12:47:05;19.80;98.00
51021;DHT22;38907;45.562;8.856;2023-04-25T12:52:07;19.60;97.60
51021;DHT22;38907;45.562;8.856;2023-04-25T12:57:10;19.40;96.30
51021;DHT22;38907;45.562;8.856;2023-04-25T13:02:14;18.00;98.90
51021;DHT22;38907;45.562;8.856;2023-04-25T13:07:17;17.70;99.90
51021;DHT22;38907;45.562;8.856;2023-04-25T13:12:19;18.10;99.90
51021;DHT22;38907;45.562;8.856;2023-04-25T13:17:22;18.60;98.40
51021;DHT22;38907;45.562;8.856;2023-04-25T13:22:25;18.70;96.70
51021;DHT22;38907;45.562;8.856;2023-04-25T13:27:27;18.80;95.10
51021;DHT22;38907;45.562;8.856;2023-04-25T13:32:31;19.00;95.60
51021;DHT22;38907;45.562;8.856;2023-04-25T13:37:33;19.00;95.30
51021;DHT22;38907;45.562;8.856;2023-04-25T13:42:36;19.20;95.40
51021;DHT22;38907;45.562;8.856;2023-04-25T13:47:40;19.20;95.90
51021;DHT22;38907;45.562;8.856;2023-04-25T13:52:42;19.30;96.00
51021;DHT22;38907;45.562;8.856;2023-04-25T13:57:44;19.60;96.70
51021;DHT22;38907;45.562;8.856;2023-04-25T14:02:47;19.70;96.00
51021;DHT22;38907;45.562;8.856;2023-04-25T14:07:50;19.70;96.10
51021;DHT22;38907;45.562;8.856;2023-04-25T14:12:51;19.90;95.60
51021;DHT22;38907;45.562;8.856;2023-04-25T14:17:55;19.80;95.00
51021;DHT22;38907;45.562;8.856;2023-04-25T14:22:57;19.90;95.60
51021;DHT22;38907;45.562;8.856;2023-04-25T14:27:59;19.90;96.10
51021;DHT22;38907;45.562;8.856;2023-04-25T14:33:02;20.00;94.60
51021;DHT22;38907;45.562;8.856;2023-04-25T14:38:05;20.00;94.40
51021;DHT22;38907;45.562;8.856;2023-04-25T14:43:08;20.20;95.00
51021;DHT22;38907;45.562;8.856;2023-04-25T14:48:11;20.10;93.70
51021;DHT22;38907;45.562;8.856;2023-04-25T14:53:13;20.20;94.30
51021;DHT22;38907;45.562;8.856;2023-04-25T14:58:16;20.40;94.70
51021;DHT22;38907;45.562;8.856;2023-04-25T15:03:19;20.40;93.70
51021;DHT22;38907;45.562;8.856;2023-04-25T15:08:21;20.30;91.30
51021;DHT22;38907;45.562;8.856;2023-04-25T15:13:23;20.60;91.50
51021;DHT22;38907;45.562;8.856;2023-04-25T15:18:26;20.60;88.90
51021;DHT22;38907;45.562;8.856;2023-04-25T15:23:28;20.80;89.80
51021;DHT22;38907;45.562;8.856;2023-04-25T15:28:30;20.80;87.10
51021;DHT22;38907;45.562;8.856;2023-04-25T15:33:35;20.80;61.80
51021;DHT22;38907;45.562;8.856;2023-04-25T15:38:37;20.80;55.10
51021;DHT22;38907;45.562;8.856;2023-04-25T15:43:39;20.90;57.00
51021;DHT22;38907;45.562;8.856;2023-04-25T15:48:42;21.00;53.30
51021;DHT22;38907;45.562;8.856;2023-04-25T15:53:44;21.20;52.40
51021;DHT22;38907;45.562;8.856;2023-04-25T15:58:46;21.20;53.70
51021;DHT22;38907;45.562;8.856;2023-04-25T16:03:51;21.40;49.30
51021;DHT22;38907;45.562;8.856;2023-04-25T16:08:53;21.30;49.40
51021;DHT22;38907;45.562;8.856;2023-04-25T16:13:55;21.10;48.00
51021;DHT22;38907;45.562;8.856;2023-04-25T16:18:59;21.10;45.80
51021;DHT22;38907;45.562;8.856;2023-04-25T16:24:01;21.10;48.20
51021;DHT22;38907;45.562;8.856;2023-04-25T16:29:03;21.00;46.20
51021;DHT22;38907;45.562;8.856;2023-04-25T16:34:07;20.90;45.30
51021;DHT22;38907;45.562;8.856;2023-04-25T16:39:09;20.90;44.90
51021;DHT22;38907;45.562;8.856;2023-04-25T16:44:11;20.70;46.60
51021;DHT22;38907;45.562;8.856;2023-04-25T16:49:14;20.40;46.40
51021;DHT22;38907;45.562;8.856;2023-04-25T16:54:16;20.20;45.50
51021;DHT22;38907;45.562;8.856;2023-04-25T16:59:18;20.10;44.60
51021;DHT22;38907;45.562;8.856;2023-04-25T17:04:21;20.00;45.50
51021;DHT22;38907;45.562;8.856;2023-04-25T17:09:23;19.90;46.20
51021;DHT22;38907;45.562;8.856;2023-04-25T17:14:26;19.80;45.80
51021;DHT22;38907;45.562;8.856;2023-04-25T17:19:29;19.60;45.10
51021;DHT22;38907;45.562;8.856;2023-04-25T17:24:31;19.60;44.70
51021;DHT22;38907;45.562;8.856;2023-04-25T17:29:33;19.50;47.20
51021;DHT22;38907;45.562;8.856;2023-04-25T17:34:36;19.40;46.50
51021;DHT22;38907;45.562;8.856;2023-04-25T17:39:39;19.30;49.10
51021;DHT22;38907;45.562;8.856;2023-04-25T17:44:41;19.20;74.10
51021;DHT22;38907;45.562;8.856;2023-04-25T17:49:45;19.00;82.80
51021;DHT22;38907;45.562;8.856;2023-04-25T17:54:46;18.80;86.50
51021;DHT22;38907;45.562;8.856;2023-04-25T17:59:48;18.70;90.10
51021;DHT22;38907;45.562;8.856;2023-04-25T18:04:52;18.60;91.10
51021;DHT22;38907;45.562;8.856;2023-04-25T18:09:55;18.30;92.50
51021;DHT22;38907;45.562;8.856;2023-04-25T18:14:58;18.10;93.90
51021;DHT22;38907;45.562;8.856;2023-04-25T18:20:03;17.90;95.00
51021;DHT22;38907;45.562;8.856;2023-04-25T18:25:08;17.80;96.10
51021;DHT22;38907;45.562;8.856;2023-04-25T18:30:11;17.60;96.90
51021;DHT22;38907;45.562;8.856;2023-04-25T18:35:15;17.60;96.70
51021;DHT22;38907;45.562;8.856;2023-04-25T18:40:17;17.40;97.10
51021;DHT22;38907;45.562;8.856;2023-04-25T18:45:19;17.10;98.70
51021;DHT22;38907;45.562;8.856;2023-04-25T18:50:22;16.90;99.90
51021;DHT22;38907;45.562;8.856;2023-04-25T18:55:25;16.80;99.90
51021;DHT22;38907;45.562;8.856;2023-04-25T19:00:28;16.50;99.90
51021;DHT22;38907;45.562;8.856;2023-04-25T19:05:31;16.40;99.90
51021;DHT22;38907;45.562;8.856;2023-04-25T19:10:33;16.30;99.90
51021;DHT22;38907;45.562;8.856;2023-04-25T19:15:35;16.10;99.90
51021;DHT22;38907;45.562;8.856;2023-04-25T19:20:38;16.00;99.90
51021;DHT22;38907;45.562;8.856;2023-04-25T19:25:40;15.90;99.90
51021;DHT22;38907;45.562;8.856;2023-04-25T19:30:42;15.70;99.90
51021;DHT22;38907;45.562;8.856;2023-04-25T19:35:47;15.60;99.90
51021;DHT22;38907;45.562;8.856;2023-04-25T19:40:48;15.40;99.90
51021;DHT22;38907;45.562;8.856;2023-04-25T19:45:50;15.50;99.90
51021;DHT22;38907;45.562;8.856;2023-04-25T19:50:53;15.40;99.90
51021;DHT22;38907;45.562;8.856;2023-04-25T19:55:55;15.30;99.90
51021;DHT22;38907;45.562;8.856;2023-04-25T20:00:58;15.30;99.90
51021;DHT22;38907;45.562;8.856;2023-04-25T20:06:01;15.20;99.90
51021;DHT22;38907;45.562;8.856;2023-04-25T20:11:03;15.20;99.90
51021;DHT22;38907;45.562;8.856;2023-04-25T20:16:06;15.20;99.90
51021;DHT22;38907;45.562;8.856;2023-04-25T20:21:09;15.00;99.90
51021;DHT22;38907;45.562;8.856;2023-04-25T20:26:11;15.00;99.90
51021;DHT22;38907;45.562;8.856;2023-04-25T20:31:13;14.90;99.90
51021;DHT22;38907;45.562;8.856;2023-04-25T20:36:16;14.70;99.90
51021;DHT22;38907;45.562;8.856;2023-04-25T20:41:19;14.50;99.90
51021;DHT22;38907;45.562;8.856;2023-04-25T20:46:22;14.70;99.90
51021;DHT22;38907;45.562;8.856;2023-04-25T20:51:25;14.70;99.90
51021;DHT22;38907;45.562;8.856;2023-04-25T20:56:28;14.50;99.90
51021;DHT22;38907;45.562;8.856;2023-04-25T21:01:30;14.30;99.90
51021;DHT22;38907;45.562;8.856;2023-04-25T21:06:33;14.30;99.90
51021;DHT22;38907;45.562;8.856;2023-04-25T21:11:34;14.50;99.90
51021;DHT22;38907;45.562;8.856;2023-04-25T21:16:37;14.20;99.90
51021;DHT22;38907;45.562;8.856;2023-04-25T21:21:41;14.20;99.90
51021;DHT22;38907;45.562;8.856;2023-04-25T21:26:43;14.20;99.90
51021;DHT22;38907;45.562;8.856;2023-04-25T21:31:45;14.30;99.90
51021;DHT22;38907;45.562;8.856;2023-04-25T21:36:49;14.20;99.90
51021;DHT22;38907;45.562;8.856;2023-04-25T21:41:50;14.10;99.90
51021;DHT22;38907;45.562;8.856;2023-04-25T21:46:52;13.80;99.90
51021;DHT22;38907;45.562;8.856;2023-04-25T21:51:56;13.70;99.90
51021;DHT22;38907;45.562;8.856;2023-04-25T21:56:57;13.70;99.90
51021;DHT22;38907;45.562;8.856;2023-04-25T22:01:59;13.50;99.90
51021;DHT22;38907;45.562;8.856;2023-04-25T22:07:02;13.40;99.90
51021;DHT22;38907;45.562;8.856;2023-04-25T22:12:04;13.30;99.90
51021;DHT22;38907;45.562;8.856;2023-04-25T22:17:07;13.20;99.90
51021;DHT22;38907;45.562;8.856;2023-04-25T22:22:10;13.20;99.90
51021;DHT22;38907;45.562;8.856;2023-04-25T22:27:12;13.30;99.90
51021;DHT22;38907;45.562;8.856;2023-04-25T22:32:14;13.40;99.90
51021;DHT22;38907;45.562;8.856;2023-04-25T22:37:18;12.90;99.90
51021;DHT22;38907;45.562;8.856;2023-04-25T22:42:20;13.00;99.90
51021;DHT22;38907;45.562;8.856;2023-04-25T22:47:22;12.90;99.90
51021;DHT22;38907;45.562;8.856;2023-04-25T22:52:25;12.80;99.90
51021;DHT22;38907;45.562;8.856;2023-04-25T22:57:28;13.00;99.90
51021;DHT22;38907;45.562;8.856;2023-04-25T23:02:29;12.80;99.90
51021;DHT22;38907;45.562;8.856;2023-04-25T23:07:33;12.10;99.90
51021;DHT22;38907;45.562;8.856;2023-04-25T23:12:35;11.70;99.90
51021;DHT22;38907;45.562;8.856;2023-04-25T23:17:37;11.70;99.90
51021;DHT22;38907;45.562;8.856;2023-04-25T23:22:40;11.90;99.90
51021;DHT22;38907;45.562;8.856;2023-04-25T23:27:42;11.90;99.90
51021;DHT22;38907;45.562;8.856;2023-04-25T23:32:44;12.20;99.90
51021;DHT22;38907;45.562;8.856;2023-04-25T23:37:47;12.20;99.90
51021;DHT22;38907;45.562;8.856;2023-04-25T23:42:49;12.20;99.90
51021;DHT22;38907;45.562;8.856;2023-04-25T23:47:51;11.60;99.90
51021;DHT22;38907;45.562;8.856;2023-04-25T23:52:54;11.40;99.90
51021;DHT22;38907;45.562;8.856;2023-04-25T23:57:56;11.20;99.90
